sensor_id;sensor_type;location;lat;lon;timestamp;P1;durP1;ratioP1;P2;durP2;ratioP2
13849;SDS011;6995;52.618;13.488;2023-05-07T00:01:51;33.60;;;31.13;;
13849;SDS011;6995;52.618;13.488;2023-05-07T00:04:17;34.47;;;31.80;;
13849;SDS011;6995;52.618;13.488;2023-05-07T00:06:57;31.63;;;29.17;;
13849;SDS011;6995;52.618;13.488;2023-05-07T00:09:22;34.13;;;31.73;;
13849;SDS011;6995;52.618;13.488;2023-05-07T00:11:48;31.87;;;29.67;;
13849;SDS011;6995;52.618;13.488;2023-05-07T00:14:13;33.63;;;31.30;;
13849;SDS011;6995;52.618;13.488;2023-05-07T00:16:39;33.17;;;30.63;;
13849;SDS011;6995;52.618;13.488;2023-05-07T00:19:05;34.77;;;32.27;;
13849;SDS011;6995;52.618;13.488;2023-05-07T00:21:30;35.00;;;32.47;;
13849;SDS011;6995;52.618;13.488;2023-05-07T00:23:57;32.93;;;30.53;;
13849;SDS011;6995;52.618;13.488;2023-05-07T00:26:22;33.47;;;30.97;;
13849;SDS011;6995;52.618;13.488;2023-05-07T00:28:48;33.00;;;30.67;;
13849;SDS011;6995;52.618;13.488;2023-05-07T00:31:13;33.53;;;31.03;;
13849;SDS011;6995;52.618;13.488;2023-05-07T00:33:39;34.63;;;32.33;;
13849;SDS011;6995;52.618;13.488;2023-05-07T00:36:05;33.73;;;31.53;;
13849;SDS011;6995;52.618;13.488;2023-05-07T00:38:31;31.93;;;29.67;;
13849;SDS011;6995;52.618;13.488;2023-05-07T00:40:56;34.23;;;31.80;;
13849;SDS011;6995;52.618;13.488;2023-05-07T00:43:22;35.90;;;33.40;;
13849;SDS011;6995;52.618;13.488;2023-05-07T00:45:47;33.73;;;31.13;;
13849;SDS011;6995;52.618;13.488;2023-05-07T00:48:13;32.90;;;30.70;;
13849;SDS011;6995;52.618;13.488;2023-05-07T00:50:41;31.90;;;29.70;;
13849;SDS011;6995;52.618;13.488;2023-05-07T00:53:07;35.00;;;32.37;;
13849;SDS011;6995;52.618;13.488;2023-05-07T00:55:33;33.27;;;31.07;;
13849;SDS011;6995;52.618;13.488;2023-05-07T00:58:00;34.80;;;32.50;;
13849;SDS011;6995;52.618;13.488;2023-05-07T01:00:25;34.80;;;32.40;;
13849;SDS011;6995;52.618;13.488;2023-05-07T01:02:51;35.70;;;33.10;;
13849;SDS011;6995;52.618;13.488;2023-05-07T01:05:18;35.43;;;32.80;;
13849;SDS011;6995;52.618;13.488;2023-05-07T01:07:45;37.00;;;34.43;;
13849;SDS011;6995;52.618;13.488;2023-05-07T01:10:12;34.07;;;31.63;;
13849;SDS011;6995;52.618;13.488;2023-05-07T01:12:37;34.67;;;32.27;;
13849;SDS011;6995;52.618;13.488;2023-05-07T01:15:05;36.47;;;33.93;;
13849;SDS011;6995;52.618;13.488;2023-05-07T01:17:36;34.17;;;31.90;;
13849;SDS011;6995;52.618;13.488;2023-05-07T01:20:06;32.97;;;30.60;;
13849;SDS011;6995;52.618;13.488;2023-05-07T01:22:36;34.80;;;32.53;;
13849;SDS011;6995;52.618;13.488;2023-05-07T01:25:06;34.77;;;32.07;;
13849;SDS011;6995;52.618;13.488;2023-05-07T01:27:35;34.33;;;31.90;;
13849;SDS011;6995;52.618;13.488;2023-05-07T01:30:02;34.87;;;32.40;;
13849;SDS011;6995;52.618;13.488;2023-05-07T01:32:30;34.77;;;32.17;;
13849;SDS011;6995;52.618;13.488;2023-05-07T01:35:02;35.83;;;33.07;;
13849;SDS011;6995;52.618;13.488;2023-05-07T01:37:30;31.70;;;29.43;;
13849;SDS011;6995;52.618;13.488;2023-05-07T01:39:56;32.80;;;30.60;;
13849;SDS011;6995;52.618;13.488;2023-05-07T01:42:22;33.00;;;30.63;;
13849;SDS011;6995;52.618;13.488;2023-05-07T01:44:48;35.50;;;32.93;;
13849;SDS011;6995;52.618;13.488;2023-05-07T01:47:14;34.93;;;32.43;;
13849;SDS011;6995;52.618;13.488;2023-05-07T01:49:41;33.40;;;31.20;;
13849;SDS011;6995;52.618;13.488;2023-05-07T01:52:07;33.17;;;30.97;;
13849;SDS011;6995;52.618;13.488;2023-05-07T01:54:34;33.30;;;30.93;;
13849;SDS011;6995;52.618;13.488;2023-05-07T01:57:00;31.30;;;29.33;;
13849;SDS011;6995;52.618;13.488;2023-05-07T01:59:26;32.70;;;30.33;;
13849;SDS011;6995;52.618;13.488;2023-05-07T02:01:52;31.27;;;29.10;;
13849;SDS011;6995;52.618;13.488;2023-05-07T02:04:17;32.77;;;30.40;;
13849;SDS011;6995;52.618;13.488;2023-05-07T02:06:43;31.67;;;29.37;;
13849;SDS011;6995;52.618;13.488;2023-05-07T02:09:08;32.17;;;30.00;;
13849;SDS011;6995;52.618;13.488;2023-05-07T02:11:34;33.30;;;31.20;;
13849;SDS011;6995;52.618;13.488;2023-05-07T02:14:00;34.80;;;32.13;;
13849;SDS011;6995;52.618;13.488;2023-05-07T02:16:25;29.77;;;27.77;;
13849;SDS011;6995;52.618;13.488;2023-05-07T02:18:51;33.37;;;30.90;;
13849;SDS011;6995;52.618;13.488;2023-05-07T02:21:17;30.43;;;28.33;;
13849;SDS011;6995;52.618;13.488;2023-05-07T02:23:43;31.10;;;29.00;;
13849;SDS011;6995;52.618;13.488;2023-05-07T02:26:10;31.40;;;29.30;;
13849;SDS011;6995;52.618;13.488;2023-05-07T02:28:36;30.93;;;28.93;;
13849;SDS011;6995;52.618;13.488;2023-05-07T02:31:04;29.90;;;27.77;;
13849;SDS011;6995;52.618;13.488;2023-05-07T02:33:30;31.23;;;28.77;;
13849;SDS011;6995;52.618;13.488;2023-05-07T02:35:56;30.60;;;28.50;;
13849;SDS011;6995;52.618;13.488;2023-05-07T02:38:22;29.57;;;27.77;;
13849;SDS011;6995;52.618;13.488;2023-05-07T02:40:51;31.63;;;29.53;;
13849;SDS011;6995;52.618;13.488;2023-05-07T02:43:16;30.93;;;28.83;;
13849;SDS011;6995;52.618;13.488;2023-05-07T02:45:42;30.07;;;28.27;;
13849;SDS011;6995;52.618;13.488;2023-05-07T02:48:08;29.20;;;27.30;;
13849;SDS011;6995;52.618;13.488;2023-05-07T02:50:33;29.10;;;27.10;;
13849;SDS011;6995;52.618;13.488;2023-05-07T02:52:59;31.73;;;29.70;;
13849;SDS011;6995;52.618;13.488;2023-05-07T02:55:25;29.37;;;27.50;;
13849;SDS011;6995;52.618;13.488;2023-05-07T02:57:50;31.50;;;29.03;;
13849;SDS011;6995;52.618;13.488;2023-05-07T03:00:17;32.70;;;30.33;;
13849;SDS011;6995;52.618;13.488;2023-05-07T03:02:44;30.73;;;28.73;;
13849;SDS011;6995;52.618;13.488;2023-05-07T03:05:10;32.03;;;29.73;;
13849;SDS011;6995;52.618;13.488;2023-05-07T03:07:36;30.97;;;28.80;;
13849;SDS011;6995;52.618;13.488;2023-05-07T03:10:03;32.80;;;30.50;;
13849;SDS011;6995;52.618;13.488;2023-05-07T03:12:30;33.97;;;31.77;;
13849;SDS011;6995;52.618;13.488;2023-05-07T03:14:56;31.63;;;29.73;;
13849;SDS011;6995;52.618;13.488;2023-05-07T03:17:21;32.63;;;30.63;;
13849;SDS011;6995;52.618;13.488;2023-05-07T03:19:47;30.97;;;28.87;;
13849;SDS011;6995;52.618;13.488;2023-05-07T03:22:13;33.47;;;31.27;;
13849;SDS011;6995;52.618;13.488;2023-05-07T03:24:39;30.63;;;28.43;;
13849;SDS011;6995;52.618;13.488;2023-05-07T03:27:04;33.33;;;31.23;;
13849;SDS011;6995;52.618;13.488;2023-05-07T03:29:30;29.47;;;27.50;;
13849;SDS011;6995;52.618;13.488;2023-05-07T03:31:56;30.77;;;28.87;;
13849;SDS011;6995;52.618;13.488;2023-05-07T03:34:21;28.20;;;26.30;;
13849;SDS011;6995;52.618;13.488;2023-05-07T03:36:48;30.37;;;28.37;;
13849;SDS011;6995;52.618;13.488;2023-05-07T03:39:14;31.13;;;29.23;;
13849;SDS011;6995;52.618;13.488;2023-05-07T03:41:39;29.87;;;27.97;;
13849;SDS011;6995;52.618;13.488;2023-05-07T03:44:05;29.47;;;27.30;;
13849;SDS011;6995;52.618;13.488;2023-05-07T03:46:31;28.43;;;26.53;;
13849;SDS011;6995;52.618;13.488;2023-05-07T03:48:59;30.73;;;28.63;;
13849;SDS011;6995;52.618;13.488;2023-05-07T03:51:25;28.83;;;26.97;;
13849;SDS011;6995;52.618;13.488;2023-05-07T03:53:51;29.43;;;27.53;;
13849;SDS011;6995;52.618;13.488;2023-05-07T03:56:22;29.27;;;27.43;;
13849;SDS011;6995;52.618;13.488;2023-05-07T03:58:48;29.57;;;27.67;;
13849;SDS011;6995;52.618;13.488;2023-05-07T04:01:13;29.00;;;27.10;;
13849;SDS011;6995;52.618;13.488;2023-05-07T04:03:55;30.70;;;28.70;;
13849;SDS011;6995;52.618;13.488;2023-05-07T04:06:21;31.77;;;29.57;;
13849;SDS011;6995;52.618;13.488;2023-05-07T04:08:47;32.17;;;30.00;;
13849;SDS011;6995;52.618;13.488;2023-05-07T04:11:12;30.07;;;27.63;;
13849;SDS011;6995;52.618;13.488;2023-05-07T04:13:38;30.77;;;28.80;;
13849;SDS011;6995;52.618;13.488;2023-05-07T04:16:04;31.13;;;29.03;;
13849;SDS011;6995;52.618;13.488;2023-05-07T04:18:30;32.80;;;30.70;;
13849;SDS011;6995;52.618;13.488;2023-05-07T04:20:56;29.80;;;27.70;;
13849;SDS011;6995;52.618;13.488;2023-05-07T04:23:21;28.13;;;26.23;;
13849;SDS011;6995;52.618;13.488;2023-05-07T04:25:47;29.77;;;27.57;;
13849;SDS011;6995;52.618;13.488;2023-05-07T04:28:13;29.47;;;27.57;;
13849;SDS011;6995;52.618;13.488;2023-05-07T04:30:39;29.10;;;27.20;;
13849;SDS011;6995;52.618;13.488;2023-05-07T04:33:04;30.00;;;28.10;;
13849;SDS011;6995;52.618;13.488;2023-05-07T04:35:31;29.33;;;27.33;;
13849;SDS011;6995;52.618;13.488;2023-05-07T04:37:57;28.57;;;26.63;;
13849;SDS011;6995;52.618;13.488;2023-05-07T04:40:22;32.27;;;30.10;;
13849;SDS011;6995;52.618;13.488;2023-05-07T04:42:48;30.60;;;28.50;;
13849;SDS011;6995;52.618;13.488;2023-05-07T04:45:14;31.20;;;29.20;;
13849;SDS011;6995;52.618;13.488;2023-05-07T04:47:40;30.77;;;28.77;;
13849;SDS011;6995;52.618;13.488;2023-05-07T04:52:49;28.30;;;26.50;;
13849;SDS011;6995;52.618;13.488;2023-05-07T04:55:15;32.00;;;29.90;;
13849;SDS011;6995;52.618;13.488;2023-05-07T04:57:40;31.20;;;29.20;;
13849;SDS011;6995;52.618;13.488;2023-05-07T05:00:06;30.20;;;28.07;;
13849;SDS011;6995;52.618;13.488;2023-05-07T05:02:33;29.23;;;27.23;;
13849;SDS011;6995;52.618;13.488;2023-05-07T05:05:00;29.57;;;27.60;;
13849;SDS011;6995;52.618;13.488;2023-05-07T05:07:27;29.73;;;27.63;;
13849;SDS011;6995;52.618;13.488;2023-05-07T05:09:53;27.17;;;25.37;;
13849;SDS011;6995;52.618;13.488;2023-05-07T05:12:19;30.33;;;28.40;;
13849;SDS011;6995;52.618;13.488;2023-05-07T05:14:45;31.07;;;28.87;;
13849;SDS011;6995;52.618;13.488;2023-05-07T05:17:10;29.30;;;27.30;;
13849;SDS011;6995;52.618;13.488;2023-05-07T05:19:36;29.60;;;27.70;;
13849;SDS011;6995;52.618;13.488;2023-05-07T05:22:01;27.67;;;25.87;;
13849;SDS011;6995;52.618;13.488;2023-05-07T05:24:28;28.40;;;26.60;;
13849;SDS011;6995;52.618;13.488;2023-05-07T05:26:55;29.70;;;27.40;;
13849;SDS011;6995;52.618;13.488;2023-05-07T05:29:21;28.67;;;26.97;;
13849;SDS011;6995;52.618;13.488;2023-05-07T05:35:04;27.43;;;25.63;;
13849;SDS011;6995;52.618;13.488;2023-05-07T05:40:22;29.57;;;27.57;;
13849;SDS011;6995;52.618;13.488;2023-05-07T05:42:55;30.40;;;28.60;;
13849;SDS011;6995;52.618;13.488;2023-05-07T05:45:21;29.40;;;27.60;;
13849;SDS011;6995;52.618;13.488;2023-05-07T05:47:46;29.27;;;27.30;;
13849;SDS011;6995;52.618;13.488;2023-05-07T05:50:12;30.63;;;28.60;;
13849;SDS011;6995;52.618;13.488;2023-05-07T05:52:37;29.00;;;27.10;;
13849;SDS011;6995;52.618;13.488;2023-05-07T05:55:03;27.67;;;25.93;;
13849;SDS011;6995;52.618;13.488;2023-05-07T05:57:29;28.07;;;26.33;;
13849;SDS011;6995;52.618;13.488;2023-05-07T05:59:55;28.87;;;26.63;;
13849;SDS011;6995;52.618;13.488;2023-05-07T06:02:21;29.57;;;27.60;;
13849;SDS011;6995;52.618;13.488;2023-05-07T06:04:47;26.20;;;24.50;;
13849;SDS011;6995;52.618;13.488;2023-05-07T06:07:12;28.17;;;26.33;;
13849;SDS011;6995;52.618;13.488;2023-05-07T06:09:38;27.63;;;25.83;;
13849;SDS011;6995;52.618;13.488;2023-05-07T06:12:03;26.70;;;24.83;;
13849;SDS011;6995;52.618;13.488;2023-05-07T06:14:29;27.93;;;25.97;;
13849;SDS011;6995;52.618;13.488;2023-05-07T06:16:55;28.27;;;26.47;;
13849;SDS011;6995;52.618;13.488;2023-05-07T06:19:21;28.83;;;27.03;;
13849;SDS011;6995;52.618;13.488;2023-05-07T06:21:48;28.53;;;26.73;;
13849;SDS011;6995;52.618;13.488;2023-05-07T06:24:14;28.20;;;26.40;;
13849;SDS011;6995;52.618;13.488;2023-05-07T06:26:40;28.47;;;26.53;;
13849;SDS011;6995;52.618;13.488;2023-05-07T06:29:06;29.97;;;28.10;;
13849;SDS011;6995;52.618;13.488;2023-05-07T06:31:43;29.97;;;28.07;;
13849;SDS011;6995;52.618;13.488;2023-05-07T06:34:08;29.43;;;27.70;;
13849;SDS011;6995;52.618;13.488;2023-05-07T06:36:35;27.55;;;25.52;;
13849;SDS011;6995;52.618;13.488;2023-05-07T06:39:00;27.50;;;25.80;;
13849;SDS011;6995;52.618;13.488;2023-05-07T06:41:29;28.23;;;26.43;;
13849;SDS011;6995;52.618;13.488;2023-05-07T06:43:55;26.70;;;24.73;;
13849;SDS011;6995;52.618;13.488;2023-05-07T06:46:23;26.83;;;25.30;;
13849;SDS011;6995;52.618;13.488;2023-05-07T06:48:49;29.33;;;27.47;;
13849;SDS011;6995;52.618;13.488;2023-05-07T06:51:28;28.77;;;26.93;;
13849;SDS011;6995;52.618;13.488;2023-05-07T06:53:54;28.37;;;26.60;;
13849;SDS011;6995;52.618;13.488;2023-05-07T06:56:19;26.93;;;25.03;;
13849;SDS011;6995;52.618;13.488;2023-05-07T06:58:48;28.03;;;26.10;;
13849;SDS011;6995;52.618;13.488;2023-05-07T07:01:13;26.87;;;25.00;;
13849;SDS011;6995;52.618;13.488;2023-05-07T07:03:40;27.90;;;26.10;;
13849;SDS011;6995;52.618;13.488;2023-05-07T07:08:59;25.37;;;23.87;;
13849;SDS011;6995;52.618;13.488;2023-05-07T07:11:25;23.87;;;22.17;;
13849;SDS011;6995;52.618;13.488;2023-05-07T07:13:51;25.90;;;24.50;;
13849;SDS011;6995;52.618;13.488;2023-05-07T07:16:16;28.80;;;26.97;;
13849;SDS011;6995;52.618;13.488;2023-05-07T07:18:42;25.70;;;24.07;;
13849;SDS011;6995;52.618;13.488;2023-05-07T07:21:08;25.27;;;23.47;;
13849;SDS011;6995;52.618;13.488;2023-05-07T07:23:33;25.97;;;24.53;;
13849;SDS011;6995;52.618;13.488;2023-05-07T07:25:59;26.27;;;24.57;;
13849;SDS011;6995;52.618;13.488;2023-05-07T07:28:24;23.93;;;22.47;;
13849;SDS011;6995;52.618;13.488;2023-05-07T07:30:50;26.57;;;25.07;;
13849;SDS011;6995;52.618;13.488;2023-05-07T07:33:16;25.23;;;23.50;;
13849;SDS011;6995;52.618;13.488;2023-05-07T07:35:42;24.17;;;22.77;;
13849;SDS011;6995;52.618;13.488;2023-05-07T07:38:07;26.10;;;24.57;;
13849;SDS011;6995;52.618;13.488;2023-05-07T07:40:36;23.97;;;22.60;;
13849;SDS011;6995;52.618;13.488;2023-05-07T07:43:02;25.43;;;23.83;;
13849;SDS011;6995;52.618;13.488;2023-05-07T07:45:28;26.47;;;24.97;;
13849;SDS011;6995;52.618;13.488;2023-05-07T07:47:54;24.53;;;23.13;;
13849;SDS011;6995;52.618;13.488;2023-05-07T07:50:19;25.57;;;24.03;;
13849;SDS011;6995;52.618;13.488;2023-05-07T07:52:45;26.15;;;24.75;;
13849;SDS011;6995;52.618;13.488;2023-05-07T07:55:11;26.43;;;24.83;;
13849;SDS011;6995;52.618;13.488;2023-05-07T07:57:37;25.17;;;23.75;;
13849;SDS011;6995;52.618;13.488;2023-05-07T08:00:03;25.88;;;24.33;;
13849;SDS011;6995;52.618;13.488;2023-05-07T08:02:31;23.90;;;22.70;;
13849;SDS011;6995;52.618;13.488;2023-05-07T08:04:56;25.80;;;24.20;;
13849;SDS011;6995;52.618;13.488;2023-05-07T08:07:22;23.75;;;22.55;;
13849;SDS011;6995;52.618;13.488;2023-05-07T08:09:48;22.05;;;20.85;;
13849;SDS011;6995;52.618;13.488;2023-05-07T08:12:14;21.90;;;20.70;;
13849;SDS011;6995;52.618;13.488;2023-05-07T08:14:40;25.08;;;23.67;;
13849;SDS011;6995;52.618;13.488;2023-05-07T08:17:06;24.48;;;22.95;;
13849;SDS011;6995;52.618;13.488;2023-05-07T08:19:31;21.33;;;20.08;;
13849;SDS011;6995;52.618;13.488;2023-05-07T08:21:57;21.43;;;20.23;;
13849;SDS011;6995;52.618;13.488;2023-05-07T08:24:23;22.73;;;21.37;;
13849;SDS011;6995;52.618;13.488;2023-05-07T08:26:49;22.20;;;21.00;;
13849;SDS011;6995;52.618;13.488;2023-05-07T08:29:15;22.63;;;21.43;;
13849;SDS011;6995;52.618;13.488;2023-05-07T08:31:40;23.03;;;21.67;;
13849;SDS011;6995;52.618;13.488;2023-05-07T08:34:06;23.93;;;22.33;;
13849;SDS011;6995;52.618;13.488;2023-05-07T08:36:32;24.00;;;22.67;;
13849;SDS011;6995;52.618;13.488;2023-05-07T08:38:58;24.53;;;23.07;;
13849;SDS011;6995;52.618;13.488;2023-05-07T08:41:24;25.30;;;23.83;;
13849;SDS011;6995;52.618;13.488;2023-05-07T08:43:50;25.03;;;23.37;;
13849;SDS011;6995;52.618;13.488;2023-05-07T08:46:17;24.87;;;23.47;;
13849;SDS011;6995;52.618;13.488;2023-05-07T08:48:44;24.20;;;22.70;;
13849;SDS011;6995;52.618;13.488;2023-05-07T08:51:17;21.65;;;20.35;;
13849;SDS011;6995;52.618;13.488;2023-05-07T08:53:44;23.52;;;21.92;;
13849;SDS011;6995;52.618;13.488;2023-05-07T08:56:11;22.55;;;21.10;;
13849;SDS011;6995;52.618;13.488;2023-05-07T08:58:37;20.92;;;19.67;;
13849;SDS011;6995;52.618;13.488;2023-05-07T09:01:03;21.60;;;20.40;;
13849;SDS011;6995;52.618;13.488;2023-05-07T09:03:34;22.00;;;20.80;;
13849;SDS011;6995;52.618;13.488;2023-05-07T09:06:00;21.45;;;20.30;;
13849;SDS011;6995;52.618;13.488;2023-05-07T09:08:26;19.65;;;18.65;;
13849;SDS011;6995;52.618;13.488;2023-05-07T09:10:53;22.50;;;21.30;;
13849;SDS011;6995;52.618;13.488;2023-05-07T09:13:18;23.52;;;22.33;;
13849;SDS011;6995;52.618;13.488;2023-05-07T09:15:44;23.77;;;22.52;;
13849;SDS011;6995;52.618;13.488;2023-05-07T09:18:10;23.60;;;22.20;;
13849;SDS011;6995;52.618;13.488;2023-05-07T09:20:37;22.48;;;21.27;;
13849;SDS011;6995;52.618;13.488;2023-05-07T09:23:03;21.48;;;20.38;;
13849;SDS011;6995;52.618;13.488;2023-05-07T09:25:30;25.17;;;23.60;;
13849;SDS011;6995;52.618;13.488;2023-05-07T09:27:57;23.00;;;21.95;;
13849;SDS011;6995;52.618;13.488;2023-05-07T09:30:23;23.70;;;22.45;;
13849;SDS011;6995;52.618;13.488;2023-05-07T09:32:53;21.13;;;19.88;;
13849;SDS011;6995;52.618;13.488;2023-05-07T09:35:19;25.10;;;23.38;;
13849;SDS011;6995;52.618;13.488;2023-05-07T09:37:46;23.30;;;22.10;;
13849;SDS011;6995;52.618;13.488;2023-05-07T09:40:28;24.08;;;22.52;;
13849;SDS011;6995;52.618;13.488;2023-05-07T09:42:55;21.90;;;20.75;;
13849;SDS011;6995;52.618;13.488;2023-05-07T09:45:21;22.75;;;21.45;;
13849;SDS011;6995;52.618;13.488;2023-05-07T09:47:57;21.40;;;20.30;;
13849;SDS011;6995;52.618;13.488;2023-05-07T09:50:27;21.88;;;20.67;;
13849;SDS011;6995;52.618;13.488;2023-05-07T09:52:54;22.73;;;21.42;;
13849;SDS011;6995;52.618;13.488;2023-05-07T09:55:21;23.33;;;21.92;;
13849;SDS011;6995;52.618;13.488;2023-05-07T09:57:49;21.90;;;20.70;;
13849;SDS011;6995;52.618;13.488;2023-05-07T10:00:16;23.70;;;22.25;;
13849;SDS011;6995;52.618;13.488;2023-05-07T10:02:44;22.83;;;20.92;;
13849;SDS011;6995;52.618;13.488;2023-05-07T10:05:14;25.23;;;23.83;;
13849;SDS011;6995;52.618;13.488;2023-05-07T10:07:40;22.98;;;21.63;;
13849;SDS011;6995;52.618;13.488;2023-05-07T10:10:06;25.27;;;24.08;;
13849;SDS011;6995;52.618;13.488;2023-05-07T10:12:32;22.52;;;21.15;;
13849;SDS011;6995;52.618;13.488;2023-05-07T10:15:05;22.77;;;21.55;;
13849;SDS011;6995;52.618;13.488;2023-05-07T10:17:32;23.88;;;22.45;;
13849;SDS011;6995;52.618;13.488;2023-05-07T10:20:02;24.77;;;23.02;;
13849;SDS011;6995;52.618;13.488;2023-05-07T10:22:29;27.20;;;25.80;;
13849;SDS011;6995;52.618;13.488;2023-05-07T10:25:02;25.83;;;24.42;;
13849;SDS011;6995;52.618;13.488;2023-05-07T10:27:28;27.13;;;25.83;;
13849;SDS011;6995;52.618;13.488;2023-05-07T10:30:12;27.73;;;26.35;;
13849;SDS011;6995;52.618;13.488;2023-05-07T10:35:22;27.35;;;25.67;;
13849;SDS011;6995;52.618;13.488;2023-05-07T10:37:50;24.90;;;23.50;;
13849;SDS011;6995;52.618;13.488;2023-05-07T10:40:16;26.33;;;24.55;;
13849;SDS011;6995;52.618;13.488;2023-05-07T10:43:05;23.15;;;21.95;;
13849;SDS011;6995;52.618;13.488;2023-05-07T10:45:31;25.38;;;23.90;;
13849;SDS011;6995;52.618;13.488;2023-05-07T10:50:42;26.77;;;25.48;;
13849;SDS011;6995;52.618;13.488;2023-05-07T10:55:45;27.52;;;26.08;;
13849;SDS011;6995;52.618;13.488;2023-05-07T10:58:34;27.98;;;26.38;;
13849;SDS011;6995;52.618;13.488;2023-05-07T11:01:02;28.95;;;27.33;;
13849;SDS011;6995;52.618;13.488;2023-05-07T11:03:28;28.02;;;26.52;;
13849;SDS011;6995;52.618;13.488;2023-05-07T11:06:14;27.60;;;26.17;;
13849;SDS011;6995;52.618;13.488;2023-05-07T11:17:07;26.33;;;24.92;;
13849;SDS011;6995;52.618;13.488;2023-05-07T11:19:53;23.08;;;21.77;;
13849;SDS011;6995;52.618;13.488;2023-05-07T11:25:05;22.60;;;21.25;;
13849;SDS011;6995;52.618;13.488;2023-05-07T11:27:32;23.10;;;21.90;;
13849;SDS011;6995;52.618;13.488;2023-05-07T11:29:58;21.95;;;20.75;;
13849;SDS011;6995;52.618;13.488;2023-05-07T11:32:26;20.77;;;19.70;;
13849;SDS011;6995;52.618;13.488;2023-05-07T11:34:57;19.85;;;18.73;;
13849;SDS011;6995;52.618;13.488;2023-05-07T11:37:24;19.38;;;18.17;;
13849;SDS011;6995;52.618;13.488;2023-05-07T11:39:51;19.70;;;18.73;;
13849;SDS011;6995;52.618;13.488;2023-05-07T11:42:35;20.45;;;19.17;;
13849;SDS011;6995;52.618;13.488;2023-05-07T11:45:02;19.65;;;18.65;;
13849;SDS011;6995;52.618;13.488;2023-05-07T11:47:30;19.70;;;18.60;;
13849;SDS011;6995;52.618;13.488;2023-05-07T11:49:56;19.30;;;18.23;;
13849;SDS011;6995;52.618;13.488;2023-05-07T11:52:26;22.38;;;21.23;;
13849;SDS011;6995;52.618;13.488;2023-05-07T11:54:53;22.08;;;20.88;;
13849;SDS011;6995;52.618;13.488;2023-05-07T11:57:21;21.75;;;20.55;;
13849;SDS011;6995;52.618;13.488;2023-05-07T11:59:47;22.70;;;21.45;;
13849;SDS011;6995;52.618;13.488;2023-05-07T12:02:20;21.90;;;20.73;;
13849;SDS011;6995;52.618;13.488;2023-05-07T12:04:46;22.25;;;21.08;;
13849;SDS011;6995;52.618;13.488;2023-05-07T12:07:12;22.88;;;21.67;;
13849;SDS011;6995;52.618;13.488;2023-05-07T12:09:39;21.00;;;19.90;;
13849;SDS011;6995;52.618;13.488;2023-05-07T12:12:05;21.83;;;20.48;;
13849;SDS011;6995;52.618;13.488;2023-05-07T12:14:31;20.63;;;19.13;;
13849;SDS011;6995;52.618;13.488;2023-05-07T12:16:57;20.27;;;19.17;;
13849;SDS011;6995;52.618;13.488;2023-05-07T12:19:28;19.50;;;18.50;;
13849;SDS011;6995;52.618;13.488;2023-05-07T12:21:54;20.10;;;19.00;;
13849;SDS011;6995;52.618;13.488;2023-05-07T12:24:21;21.08;;;19.88;;
13849;SDS011;6995;52.618;13.488;2023-05-07T12:26:47;25.02;;;23.58;;
13849;SDS011;6995;52.618;13.488;2023-05-07T12:29:13;23.27;;;22.05;;
13849;SDS011;6995;52.618;13.488;2023-05-07T12:31:42;20.90;;;19.80;;
13849;SDS011;6995;52.618;13.488;2023-05-07T12:34:08;21.80;;;20.02;;
13849;SDS011;6995;52.618;13.488;2023-05-07T12:36:45;23.45;;;22.35;;
13849;SDS011;6995;52.618;13.488;2023-05-07T12:39:13;22.73;;;21.52;;
13849;SDS011;6995;52.618;13.488;2023-05-07T12:41:55;24.75;;;23.38;;
13849;SDS011;6995;52.618;13.488;2023-05-07T12:44:22;27.83;;;26.38;;
13849;SDS011;6995;52.618;13.488;2023-05-07T12:46:48;23.30;;;22.20;;
13849;SDS011;6995;52.618;13.488;2023-05-07T12:49:15;18.60;;;17.60;;
13849;SDS011;6995;52.618;13.488;2023-05-07T12:51:41;19.55;;;18.38;;
13849;SDS011;6995;52.618;13.488;2023-05-07T12:54:07;18.13;;;17.00;;
13849;SDS011;6995;52.618;13.488;2023-05-07T12:56:35;19.08;;;18.08;;
13849;SDS011;6995;52.618;13.488;2023-05-07T12:59:01;20.42;;;19.33;;
13849;SDS011;6995;52.618;13.488;2023-05-07T13:01:31;19.00;;;18.00;;
13849;SDS011;6995;52.618;13.488;2023-05-07T13:04:05;16.90;;;16.10;;
13849;SDS011;6995;52.618;13.488;2023-05-07T13:06:31;16.48;;;15.65;;
13849;SDS011;6995;52.618;13.488;2023-05-07T13:08:56;17.95;;;17.05;;
13849;SDS011;6995;52.618;13.488;2023-05-07T13:11:22;20.38;;;19.38;;
13849;SDS011;6995;52.618;13.488;2023-05-07T13:13:48;17.45;;;16.55;;
13849;SDS011;6995;52.618;13.488;2023-05-07T13:16:13;19.75;;;18.65;;
13849;SDS011;6995;52.618;13.488;2023-05-07T13:18:39;19.60;;;18.40;;
13849;SDS011;6995;52.618;13.488;2023-05-07T13:21:05;20.02;;;18.90;;
13849;SDS011;6995;52.618;13.488;2023-05-07T13:23:31;17.45;;;16.55;;
13849;SDS011;6995;52.618;13.488;2023-05-07T13:25:57;18.70;;;17.63;;
13849;SDS011;6995;52.618;13.488;2023-05-07T13:28:23;19.35;;;18.20;;
13849;SDS011;6995;52.618;13.488;2023-05-07T13:30:50;19.95;;;18.95;;
13849;SDS011;6995;52.618;13.488;2023-05-07T13:35:49;20.02;;;19.00;;
13849;SDS011;6995;52.618;13.488;2023-05-07T13:38:14;23.08;;;21.77;;
13849;SDS011;6995;52.618;13.488;2023-05-07T13:40:41;18.58;;;17.67;;
13849;SDS011;6995;52.618;13.488;2023-05-07T13:43:06;17.33;;;16.33;;
13849;SDS011;6995;52.618;13.488;2023-05-07T13:45:32;17.55;;;16.55;;
13849;SDS011;6995;52.618;13.488;2023-05-07T13:47:58;19.17;;;18.17;;
13849;SDS011;6995;52.618;13.488;2023-05-07T13:50:24;18.20;;;17.17;;
13849;SDS011;6995;52.618;13.488;2023-05-07T13:52:51;20.25;;;19.05;;
13849;SDS011;6995;52.618;13.488;2023-05-07T13:55:17;20.80;;;19.45;;
13849;SDS011;6995;52.618;13.488;2023-05-07T13:57:43;19.38;;;18.17;;
13849;SDS011;6995;52.618;13.488;2023-05-07T14:00:10;22.02;;;20.80;;
13849;SDS011;6995;52.618;13.488;2023-05-07T14:02:36;21.10;;;19.67;;
13849;SDS011;6995;52.618;13.488;2023-05-07T14:05:02;18.77;;;17.67;;
13849;SDS011;6995;52.618;13.488;2023-05-07T14:07:28;19.83;;;18.83;;
13849;SDS011;6995;52.618;13.488;2023-05-07T14:09:54;21.38;;;20.15;;
13849;SDS011;6995;52.618;13.488;2023-05-07T14:12:19;21.60;;;20.40;;
13849;SDS011;6995;52.618;13.488;2023-05-07T14:14:45;21.42;;;20.33;;
13849;SDS011;6995;52.618;13.488;2023-05-07T14:17:12;22.20;;;20.92;;
13849;SDS011;6995;52.618;13.488;2023-05-07T14:19:37;18.38;;;17.55;;
13849;SDS011;6995;52.618;13.488;2023-05-07T14:22:03;21.05;;;19.95;;
13849;SDS011;6995;52.618;13.488;2023-05-07T14:24:28;19.95;;;18.95;;
13849;SDS011;6995;52.618;13.488;2023-05-07T14:26:56;17.75;;;16.77;;
13849;SDS011;6995;52.618;13.488;2023-05-07T14:29:22;19.85;;;18.80;;
13849;SDS011;6995;52.618;13.488;2023-05-07T14:31:48;24.52;;;23.20;;
13849;SDS011;6995;52.618;13.488;2023-05-07T14:34:13;19.52;;;18.35;;
13849;SDS011;6995;52.618;13.488;2023-05-07T14:36:39;19.20;;;18.17;;
13849;SDS011;6995;52.618;13.488;2023-05-07T14:39:09;18.75;;;17.77;;
13849;SDS011;6995;52.618;13.488;2023-05-07T14:41:35;17.85;;;16.95;;
13849;SDS011;6995;52.618;13.488;2023-05-07T14:44:00;19.70;;;18.60;;
13849;SDS011;6995;52.618;13.488;2023-05-07T14:46:28;22.40;;;21.15;;
13849;SDS011;6995;52.618;13.488;2023-05-07T14:48:54;19.85;;;18.85;;
13849;SDS011;6995;52.618;13.488;2023-05-07T14:51:21;22.85;;;21.55;;
13849;SDS011;6995;52.618;13.488;2023-05-07T14:53:47;19.70;;;18.80;;